»·PEaware :: N811A KBUR-KLAS

N811A :: KBUR-KLAS

FLIGHT INFORMATION

Flight Status: Arrived
Operator: Privately registered:
United States
More flights under this callsign
Pilot: Anonymous 29969 (29969)
Aircraft: Unknown
(ZZZZ)
More flights by this aircraft type
Origin: KBUR Bob Hope-Burbank
United States
Destination: KLAS McCarran Intl
United States
More flights between these airports :: More routes between these airports
Route: +VVERA2 DAG CRESO4
File this flight plan on PilotEdge
Remarks: Aircraft Turboprop modified Impulse 100
Altitude:
(Current/Filed)
25,000ft
Speed:
(Current/Filed)
350kts
Departed: 01-Aug-20 03:24 PM
Arrived: 01-Aug-20 04:13 PM
Distance/Time
Traveled:
193nm/0:49
Distance/Time
To Go:
Arrived

Flight Plot

Page will automatically refresh every two minutes.

Flight plan parsing failed; only flown route is shown


Map Options




Map Legend


Flown Route
Filed Route
Departure Airport
Arrival Airport
Navaid (VOR, NDB)
Fix

Horizontal Profiles

Position Reports

Time Latitude Longitude Heading Altitude Ground
Speed
01-Aug-20 14:49 34.200216 -118.358842 257 779ft 0kts
01-Aug-20 14:50 34.200216 -118.358842 257 779ft 0kts
01-Aug-20 14:51 34.200216 -118.358842 257 779ft 0kts
01-Aug-20 14:52 34.200216 -118.358843 257 779ft 0kts
01-Aug-20 14:53 34.200216 -118.358843 257 779ft 0kts
01-Aug-20 14:54 34.200216 -118.358843 257 779ft 0kts
01-Aug-20 14:55 34.200216 -118.358843 257 779ft 0kts
01-Aug-20 14:56 34.200216 -118.358843 257 779ft 0kts
01-Aug-20 14:57 34.200216 -118.358843 257 779ft 0kts
01-Aug-20 14:58 34.200216 -118.358843 257 779ft 0kts
01-Aug-20 14:59 34.200216 -118.358843 257 779ft 0kts
01-Aug-20 15:00 34.200216 -118.358843 257 779ft 0kts
01-Aug-20 15:01 34.200216 -118.358843 257 779ft 0kts
01-Aug-20 15:02 34.200216 -118.358843 257 779ft 0kts
01-Aug-20 15:03 34.200216 -118.358843 257 779ft 0kts
01-Aug-20 15:04 34.200216 -118.358843 257 779ft 0kts
01-Aug-20 15:05 34.200216 -118.358843 257 779ft 0kts
01-Aug-20 15:06 34.200216 -118.358843 257 779ft 0kts
01-Aug-20 15:07 34.200216 -118.358843 257 779ft 0kts
01-Aug-20 15:08 34.200216 -118.358843 257 779ft 0kts
01-Aug-20 15:09 34.200216 -118.358843 257 779ft 0kts
01-Aug-20 15:10 34.200216 -118.358843 257 779ft 0kts
01-Aug-20 15:11 34.200216 -118.358843 257 779ft 0kts
01-Aug-20 15:12 34.200216 -118.358843 257 779ft 0kts
01-Aug-20 15:13 34.200216 -118.358843 257 779ft 0kts
01-Aug-20 15:14 34.200216 -118.358843 257 779ft 0kts
01-Aug-20 15:15 34.200216 -118.358843 257 779ft 0kts
01-Aug-20 15:16 34.201018 -118.359447 342 779ft 11kts
01-Aug-20 15:17 34.204608 -118.359498 347 779ft 14kts
01-Aug-20 15:18 34.208571 -118.360591 347 779ft 14kts
01-Aug-20 15:19 34.211427 -118.361333 32 779ft 0kts
01-Aug-20 15:20 34.211427 -118.361333 32 779ft 0kts
01-Aug-20 15:21 34.211427 -118.361333 32 779ft 0kts
01-Aug-20 15:22 34.211724 -118.361027 51 779ft 7kts
01-Aug-20 15:23 34.204804 -118.358473 160 819ft 80kts
01-Aug-20 15:24 34.182630 -118.349399 191 2145ft 72kts
01-Aug-20 15:25 34.158601 -118.378590 223 3992ft 186kts
01-Aug-20 15:26 34.118843 -118.426700 222 6890ft 214kts
01-Aug-20 15:27 34.116187 -118.483668 333 10148ft 239kts
01-Aug-20 15:28 34.191117 -118.506565 341 10991ft 323kts
01-Aug-20 15:29 34.279670 -118.534288 342 10997ft 331kts
01-Aug-20 15:30 34.368198 -118.539956 31 11181ft 339kts
01-Aug-20 15:31 34.403261 -118.437612 67 12735ft 321kts
01-Aug-20 15:32 34.455542 -118.344926 52 13024ft 345kts
01-Aug-20 15:33 34.496750 -118.239626 65 13680ft 336kts
01-Aug-20 15:34 34.522565 -118.134522 76 17011ft 309kts
01-Aug-20 15:35 34.541479 -118.037607 76 20996ft 289kts
01-Aug-20 15:36 34.559150 -117.946364 76 24872ft 277kts
01-Aug-20 15:37 34.579286 -117.841062 76 25060ft 350kts
01-Aug-20 15:38 34.602782 -117.718879 76 25064ft 388kts
01-Aug-20 15:39 34.627600 -117.589844 76 25082ft 393kts
01-Aug-20 15:41 34.651806 -117.462658 76 25084ft 385kts
01-Aug-20 15:42 34.675825 -117.335929 77 25082ft 384kts
01-Aug-20 15:43 34.699683 -117.209291 77 25081ft 384kts
01-Aug-20 15:44 34.723365 -117.082799 76 25073ft 384kts
01-Aug-20 15:45 34.763151 -116.963823 56 25021ft 381kts
01-Aug-20 15:46 34.819529 -116.854952 55 24991ft 379kts
01-Aug-20 15:47 34.875493 -116.746803 55 24991ft 377kts
01-Aug-20 15:48 34.931401 -116.638522 55 24271ft 378kts
01-Aug-20 15:49 34.984284 -116.529281 59 23998ft 370kts
01-Aug-20 15:50 35.033361 -116.418823 59 24015ft 370kts
01-Aug-20 15:51 35.082931 -116.306880 60 23427ft 383kts
01-Aug-20 15:52 35.134395 -116.190242 60 21831ft 397kts
01-Aug-20 15:53 35.186841 -116.070955 60 19730ft 400kts
01-Aug-20 15:54 35.239456 -115.950873 60 17223ft 401kts
01-Aug-20 15:55 35.291559 -115.831550 61 14860ft 394kts
01-Aug-20 15:56 35.356960 -115.725473 46 12347ft 391kts
01-Aug-20 15:56 35.416011 -115.646709 46 12009ft 366kts
01-Aug-20 15:58 35.496291 -115.539171 46 10295ft 365kts
01-Aug-20 15:59 35.557190 -115.457435 46 10010ft 304kts
01-Aug-20 15:59 35.604529 -115.393827 46 10011ft 300kts
01-Aug-20 16:00 35.660966 -115.317874 46 10009ft 305kts
01-Aug-20 16:01 35.719466 -115.239339 46 10008ft 314kts
01-Aug-20 16:03 35.789140 -115.147579 35 9982ft 315kts
01-Aug-20 16:03 35.855131 -115.109862 22 9987ft 313kts
01-Aug-20 16:04 35.935342 -115.065836 22 8721ft 321kts
01-Aug-20 16:05 36.016691 -115.021209 21 6987ft 314kts
01-Aug-20 16:06 36.093464 -114.979368 21 6932ft 295kts
01-Aug-20 16:07 36.150332 -115.017314 295 6406ft 234kts
01-Aug-20 16:08 36.182459 -115.083368 293 4591ft 222kts
01-Aug-20 16:09 36.150172 -115.126497 202 3388ft 162kts
01-Aug-20 16:10 36.119069 -115.145156 200 2742ft 126kts
01-Aug-20 16:11 36.092155 -115.160770 203 2184ft 56kts
01-Aug-20 16:12 36.089359 -115.163568 264 2184ft 0kts
01-Aug-20 16:13 36.089359 -115.163568 264 2184ft 0kts
01-Aug-20 16:14 36.088262 -115.164451 203 2184ft 9kts
01-Aug-20 16:15 36.083898 -115.166967 202 2184ft 26kts
01-Aug-20 16:16 36.080769 -115.170678 39 2184ft 5kts
01-Aug-20 16:17 36.080812 -115.170676 351 2184ft 0kts
01-Aug-20 16:18 36.080812 -115.170676 351 2184ft 0kts
01-Aug-20 16:19 36.080812 -115.170676 351 2184ft 0kts
01-Aug-20 16:20 36.080812 -115.170676 351 2184ft 0kts
01-Aug-20 16:21 36.080812 -115.170676 351 2184ft 0kts
01-Aug-20 16:22 36.080812 -115.170676 351 2184ft 0kts
01-Aug-20 16:23 36.080812 -115.170676 351 2184ft 0kts
01-Aug-20 16:24 36.080812 -115.170676 351 2184ft 0kts
01-Aug-20 16:25 36.080812 -115.170676 351 2184ft 0kts
01-Aug-20 16:26 36.080812 -115.170676 351 2184ft 0kts

Navigation Log

Ident Type
Flight plan parsing failed, navigation log unavailable